County by County Results


Race #1

Girls 5K Sarasota

FINAL RESULTS
RACE SUMMARY
 Start Time:  6:33 pm  Conditions:  Humid  Temperature:  86 Degrees  Winds:  NNE 6 mph 
 Meet Starter:  Dave Bryan

TEAM SCORING SUMMARY
Sarasota
Final Standings	Score	Scoring Order	Total	Avg.	Spread	Division
1	Out of Door Academy	43	2-4-8-13-16(21)(26)	1:49:37	21:56	1:31.6	Sarasota
2	Venice HS	48	5-6-7-12-18(24)(30)	1:49:55	21:59	1:27.9	Sarasota
3	Sarasota Riverview HS	57	1-10-14-15-17(19)(20)	1:51:16	22:16	1:45.7	Sarasota
4	Sarasota HS	115	3-11-31-34-36(38)(41)	2:00:45	24:09	4:57.1	Sarasota
5	North Port HS	118	9-25-27-28-29(32)(33)	1:58:36	23:44	2:45.4	Sarasota
6	Imagine School at North Port	156	22-23-35-37-39(40)	2:08:02	25:37	4:56.0	Sarasota
INDIVIDUAL RESULTS
Girls 5k Run Sarasota
pl	name	yr		team		time
1	EHRHART, Terra	JR	807	Sarasota Riverview HS	1	21:08.62	2:34.7	6:47.9	4:13.7
2	SHAW, Maria	8	673	Out of Door Academy	2	21:17.31	2:43.4	6:50.7	4:15.5
3	WALTER, Lucy	SO	773	Sarasota HS	3	21:23.59	2:49.6	6:52.7	4:16.7
4	STUDDIFORD, Maeve	SO	674	Out of Door Academy	4	21:24.41	2:50.5	6:53.0	4:16.9
5	COURVILLE, Julianna	9	870	Venice HS	5	21:29.14	2:55.2	6:54.5	4:17.8
6	LUFF, Hannah	JR	874	Venice HS	6	21:41.11	3:07.2	6:58.4	4:20.2
7	LUKOWSKI, Jennifer	SR	875	Venice HS	7	21:41.50	3:07.5	6:58.5	4:20.3
8	EAKLE, Abigail	JR	668	Out of Door Academy	8	21:51.15	3:17.2	7:01.6	4:22.2
9	SMITH, Alexis	JR	642	North Port HS	9	21:54.07	3:20.1	7:02.5	4:22.8
10	FLINT, Georgia	9	810	Sarasota Riverview HS	10	22:00.84	3:26.9	7:04.7	4:24.2
11	SIKORSKI, Lily	SO	770	Sarasota HS	11	22:05.80	3:31.8	7:06.3	4:25.2
12	MYBURG, Ann	9	879	Venice HS	12	22:06.15	3:32.2	7:06.4	4:25.2
13	ROBBINS, Aubrey	7	672	Out of Door Academy	13	22:14.48	3:40.5	7:09.1	4:26.9
14	REILLY, caroline	SO	816	Sarasota Riverview HS	14	22:25.16	3:51.2	7:12.5	4:29.0
15	CHAMBERS, Juliana	JR	804	Sarasota Riverview HS	15	22:46.94	4:13.0	7:19.5	4:33.4
16	DAMMANN, Cayla	SR	667	Out of Door Academy	16	22:48.82	4:14.9	7:20.1	4:33.8
17	CREEVY, Caroline	SO	806	Sarasota Riverview HS	17	22:54.23	4:20.3	7:21.9	4:34.8
18	ROBERTSON, Hannah	SR	881	Venice HS	18	22:56.96	4:23.0	7:22.8	4:35.4
19	FETTY, Caroline	JR	809	Sarasota Riverview HS	19	23:16.39	4:42.4	7:29.0	4:39.3
20	PETEREIT, Cecilia	SO	783	Sarasota Military Academy	--	23:19.30	4:45.3	7:29.9	4:39.9
21	JONES, Shaiel	9	811	Sarasota Riverview HS	20	23:21.78	4:47.8	7:30.7	4:40.4
22	BURWOOD, Abbey	7	665	Out of Door Academy	21	23:22.34	4:48.4	7:30.9	4:40.5
23	RASSBACH, Makayla	8	551	Imagine School at North Port	22	23:27.50	4:53.5	7:32.6	4:41.5
24	DAVIDSON, Donna	7	547	Imagine School at North Port	23	23:30.48	4:56.5	7:33.5	4:42.1
25	MCLEAN, Delaney	JR	876	Venice HS	24	23:36.38	5:02.4	7:35.4	4:43.3
26	DOYLE, Mackenzie	SR	637	North Port HS	25	23:37.37	5:03.4	7:35.7	4:43.5
27	BALL, Chelsea	SO	662	Out of Door Academy	26	23:39.09	5:05.1	7:36.3	4:43.8
28	BRUNEMAN, Oliva	JR	803	Sarasota Riverview HS	--	23:53.04	5:19.1	7:40.8	4:46.6
29	MAGG, Claire	8	671	Out of Door Academy	--	23:56.47	5:22.5	7:41.9	4:47.3
30	BEHNE SHARMA, Allison	JR	802	Sarasota Riverview HS	--	24:01.92	5:28.0	7:43.6	4:48.4
31	DOYLE, Hailey	SO	636	North Port HS	27	24:04.45	5:30.5	7:44.5	4:48.9
32	FIORUCCI, Bella	JR	669	Out of Door Academy	--	24:15.33	5:41.4	7:48.0	4:51.1
33	COOPER, Taylor	SR	634	North Port HS	28	24:20.13	5:46.2	7:49.5	4:52.0
34	KEYVANI, Clara	9	813	Sarasota Riverview HS	--	24:20.72	5:46.8	7:49.7	4:52.1
35	MORTON-MIJARES, Victoria	SO	782	Sarasota Military Academy	--	24:32.57	5:58.6	7:53.5	4:54.5
36	WILBURN, Katarina	9	645	North Port HS	29	24:39.38	6:05.4	7:55.7	4:55.9
37	SLATTERY, Shawna	SR	882	Venice HS	30	24:41.42	6:07.5	7:56.3	4:56.3
38	ALEMAN, Maya	JR	801	Sarasota Riverview HS	--	24:57.33	6:23.4	8:01.5	4:59.5
39	IPPOLITO, Lauren	FR	764	Sarasota HS	31	25:00.10	6:26.1	8:02.3	5:00.0
40	VIDAL, Briana	SR	644	North Port HS	32	25:12.89	6:38.9	8:06.5	5:02.6
41	LEVERING, kelsey	SR	873	Venice HS	--	25:17.75	6:43.8	8:08.0	5:03.6
42	KATELYNN, Hall	SR	639	North Port HS	33	25:19.41	6:45.5	8:08.6	5:03.9
43	MCBRIDE, ELizabeth	9	815	Sarasota Riverview HS	--	25:28.05	6:54.1	8:11.3	5:05.6
44	BARRLES, Ximena	SO	663	Out of Door Academy	--	25:40.50	7:06.5	8:15.3	5:08.1
45	BRICKER, Catherine	SO	762	Sarasota HS	34	25:54.49	7:20.5	8:19.8	5:10.9
46	SORRENTINO, Camilla	SO	643	North Port HS	--	25:57.87	7:23.9	8:20.9	5:11.6
47	WILBURN, Tatiana	JR	646	North Port HS	--	26:06.35	7:32.4	8:23.6	5:13.3
48	LEAR, Chloe	SR	872	Venice HS	--	26:10.61	7:36.7	8:25.0	5:14.1
49	RASSBACH, Madison	JR	550	Imagine School at North Port	35	26:16.02	7:42.1	8:26.8	5:15.2
50	VOLPE, Nina	SR	884	Venice HS	--	26:19.90	7:45.9	8:28.0	5:16.0
51	LEWIS, Renn	JR	767	Sarasota HS	36	26:20.62	7:46.7	8:28.2	5:16.1
52	FREUND, Holly	JR	548	Imagine School at North Port	37	26:24.07	7:50.1	8:29.3	5:16.8
53	MENDEZ, Sarah	JR	641	North Port HS	--	26:35.61	8:01.7	8:33.1	5:19.1
54	TYNER, Sierra	SO	819	Sarasota Riverview HS	--	26:40.55	8:06.6	8:34.6	5:20.1
55	BUDDE, Bailey	JR	868	Venice HS	--	26:42.75	8:08.8	8:35.4	5:20.5
56	LENZ, Ashlee	9	814	Sarasota Riverview HS	--	26:43.79	8:09.8	8:35.7	5:20.8
57	COX, Elizabeth	9	805	Sarasota Riverview HS	--	26:48.69	8:14.7	8:37.3	5:21.7
58	BRAINARD, Alyvia	SO	867	Venice HS	--	27:07.68	8:33.7	8:43.4	5:25.5
59	KOMANKI, Eugenia	JR	670	Out of Door Academy	--	27:39.21	9:05.3	8:53.5	5:31.8
60	ROUILLARD, Ariane	JR	769	Sarasota HS	38	28:13.21	9:39.3	9:04.4	5:38.6
61	HARPER, Bella	SO	549	Imagine School at North Port	39	28:23.43	9:49.5	9:07.7	5:40.7
62	BLACK, Dylan	SO	664	Out of Door Academy	--	28:51.74	10:17.8	9:16.8	5:46.3
63	CARRILLO, Raquel	JR	633	North Port HS	--	29:20.64	10:46.7	9:26.1	5:52.1
64	SIMMONS, Abigail	8	552	Imagine School at North Port	40	29:22.74	10:48.8	9:26.8	5:52.5
65	GRIMMER, Annalise	SO	763	Sarasota HS	41	29:38.50	11:04.5	9:31.9	5:55.7
66	DUZS, Hannah	JR	871	Venice HS	--	31:21.63	12:47.7	10:05.0	6:16.3
67	MOREHEAD, Casey	SO	877	Venice HS	--	31:23.49	12:49.5	10:05.6	6:16.7
68	MURDOCCA, Aundraya	SO	878	Venice HS	--	31:25.01	12:51.1	10:06.1	6:17.0
69	JARAMILLO, Vianey	SR	460	Booker HS	--	31:37.57	13:03.6	10:10.2	6:19.5
70	GONZALEZ, Kimberly	SR	638	North Port HS	--	32:02.55	13:28.6	10:18.2	6:24.5
71	SMART, nakita	SR	883	Venice HS	--	32:07.62	13:33.7	10:19.8	6:25.5
72	COOPER, Ayla	SO	666	Out of Door Academy	--	33:53.05	15:19.1	10:53.7	6:46.6
73	DHAITI, Lenchy	SO	635	North Port HS	--	34:27.77	15:53.8	11:04.9	6:53.6
74	MENDEZ, Abigail	SO	640	North Port HS	--	35:34.75	17:00.8	11:26.4	7:07.0
75	JONHSON, Ruby	9	812	Sarasota Riverview HS	--	36:04.07	17:30.1	11:35.8	7:12.8
Race #1

Girls 5K Charlotte

FINAL RESULTS
RACE SUMMARY
 Start Time:  6:33 pm  Conditions:  Humid  Temperature:  86 Degrees  Winds:  NNE 6 mph 
 Meet Starter:  Dave Bryan

TEAM SCORING SUMMARY
Charlotte
Final Standings	Score	Scoring Order	Total	Avg.	Spread	Division
1	Charlotte HS	20	2-3-4-5-6(8)(9)	1:43:53	20:47	0:44.1	Charlotte
2	Port Charlotte HS	41	1-7-10-11-12(13)(14)	1:48:28	21:42	4:40.3	Charlotte
INDIVIDUAL RESULTS
Girls 5k Run Charlotte
pl	name	yr		team		time
1	COOGAN, Isabella	SR	731	Port Charlotte HS	1	18:56.54	0:22.6	6:05.4	3:47.3
2	SIMEONE, Victoria	SR	524	Charlotte HS	2	20:30.44	1:56.5	6:35.6	4:06.1
3	FLOWERS, Mackenzie	JR	520	Charlotte HS	3	20:32.61	1:58.7	6:36.3	4:06.5
4	ROUGHTON, Alexa	SR	523	Charlotte HS	4	20:43.43	2:09.5	6:39.8	4:08.7
5	PIACITELLI, Hannah	JR	521	Charlotte HS	5	20:51.90	2:17.9	6:42.5	4:10.4
6	COLLINS, Aleecia	SO	518	Charlotte HS	6	21:14.50	2:40.5	6:49.8	4:14.9
7	QUINONES-PADILLA, Amy	SR	734	Port Charlotte HS	7	21:22.29	2:48.3	6:52.3	4:16.5
8	STREETMAN, Savannah	SO	525	Charlotte HS	8	21:36.30	3:02.3	6:56.8	4:19.3
9	WINKLER, Faith	SO	527	Charlotte HS	9	21:44.09	3:10.1	6:59.3	4:20.8
10	RAMOS, Jocelyn	SR	735	Port Charlotte HS	10	21:47.95	3:14.0	7:00.6	4:21.6
11	WELGAN, Haley	SO	736	Port Charlotte HS	11	22:43.66	4:09.7	7:18.5	4:32.7
12	UEBELACKER, Kalyn	JR	526	Charlotte HS	--	22:50.59	4:16.6	7:20.7	4:34.1
13	RODETSKY, Sydney	SR	522	Charlotte HS	--	23:03.35	4:29.4	7:24.8	4:36.7
14	BORZYSKOWSKI, Natalie	JR	517	Charlotte HS	--	23:18.92	4:45.0	7:29.8	4:39.8
15	BALUS, Chloe	9	730	Port Charlotte HS	12	23:36.83	5:02.9	7:35.6	4:43.4
16	BARNES, Micah	JR	516	Charlotte HS	--	23:42.52	5:08.6	7:37.4	4:44.5
17	WERDEN, Audrey	JR	596	Lemon Bay HS	--	24:21.21	5:47.3	7:49.8	4:52.2
18	CARLEY, Megan	SR	594	Lemon Bay HS	--	25:43.88	7:09.9	8:16.4	5:08.8
19	COLUMBIA, Danielle	9	519	Charlotte HS	--	26:25.69	7:51.7	8:29.9	5:17.1
20	GOUCHER, Jayden	SO	732	Port Charlotte HS	13	26:44.61	8:10.7	8:36.0	5:20.9
21	HENSLER, Kaya	JR	733	Port Charlotte HS	14	28:22.03	9:48.1	9:07.3	5:40.4
Race #1

Girls 5K Manatee

FINAL RESULTS
RACE SUMMARY
 Start Time:  6:33 pm  Conditions:  Humid  Temperature:  86 Degrees  Winds:  NNE 6 mph 
 Meet Starter:  Dave Bryan

TEAM SCORING SUMMARY
Manatee
Final Standings	Score	Scoring Order	Total	Avg.	Spread	Division
1	Lakewood Ranch HS	30	4-5-6-7-8(9)(11)	1:45:54	21:11	1:41.8	Manatee
2	Manatee HS	53	1-3-13-16-20(27)(28)	1:49:19	21:52	5:53.7	Manatee
3	Braden River HS	67	2-12-14-18-21(23)(25)	1:54:26	22:54	4:39.8	Manatee
4	Palmetto Senior HS	83	10-15-17-19-22(24)(26)	1:59:01	23:49	2:56.0	Manatee
INDIVIDUAL RESULTS
Girls 5k Run Manatee
pl	name	yr		team		time
1	LEHMAN, Caroline	9	609	Manatee HS	1	18:34.25	---	5:58.3	3:42.9
2	MARSTON, Grace	9	493	Braden River HS	2	19:51.26	1:17.3	6:23.0	3:58.3
3	WEBER, Melissa	9	614	Manatee HS	3	19:52.89	1:18.9	6:23.6	3:58.6
4	KLEIN, Ava	JR	577	Lakewood Ranch HS	4	20:24.87	1:50.9	6:33.8	4:05.0
5	BRADSHAW, Riley	SO	571	Lakewood Ranch HS	5	20:39.64	2:05.7	6:38.6	4:07.9
6	INGALLINERA, Mason	JR	576	Lakewood Ranch HS	6	20:58.02	2:24.1	6:44.5	4:11.6
7	STOCK, Anna	JR	584	Lakewood Ranch HS	7	21:44.17	3:10.2	6:59.3	4:20.8
8	WIETECHA, Ellison	JR	585	Lakewood Ranch HS	8	22:06.60	3:32.6	7:06.6	4:25.3
9	MELZER, Aurora	9	578	Lakewood Ranch HS	9	22:18.09	3:44.1	7:10.3	4:27.6
10	SULLIVAN, Mackenzie	SR	712	Palmetto Senior HS	10	22:25.97	3:52.0	7:12.8	4:29.2
11	GRANACK, Sydney	SO	574	Lakewood Ranch HS	11	22:32.42	3:58.5	7:14.9	4:30.5
12	JOHNSON, Kenzie	SO	491	Braden River HS	12	22:50.69	4:16.7	7:20.7	4:34.1
13	MAHURIN, Tessa	SO	611	Manatee HS	13	22:57.07	4:23.1	7:22.8	4:35.4
14	MARSTON, Hailey	9	494	Braden River HS	14	23:06.45	4:32.5	7:25.8	4:37.3
15	CASTRO, Wendy	JR	697	Palmetto Senior HS	15	23:25.53	4:51.6	7:31.9	4:41.1
16	NICHOLS, Beatrice	9	612	Manatee HS	16	23:26.84	4:52.9	7:32.4	4:41.4
17	GRABLE, Megan	SR	450	Bayshore HS	--	23:36.68	5:02.7	7:35.5	4:43.3
18	ROSS, Amanda	SO	709	Palmetto Senior HS	17	23:37.96	5:04.0	7:35.9	4:43.6
19	PHILOGENE, Rose-Ferla	SO	497	Braden River HS	18	24:05.91	5:32.0	7:44.9	4:49.2
20	CARLOS, Lilianna	SR	696	Palmetto Senior HS	19	24:09.09	5:35.1	7:45.9	4:49.8
21	LIPTON, Abigail	SR	610	Manatee HS	20	24:27.87	5:53.9	7:52.0	4:53.6
22	BUSI, Isabella	SO	486	Braden River HS	21	24:31.02	5:57.1	7:53.0	4:54.2
23	VEGA, Isabel	SR	454	Bayshore HS	--	24:32.74	5:58.8	7:53.5	4:54.5
24	DUNN, Elise	9	572	Lakewood Ranch HS	--	24:45.71	6:11.8	7:57.7	4:57.1
25	PORTWOOD, Madelyn	9	580	Lakewood Ranch HS	--	25:16.13	6:42.2	8:07.5	5:03.2
26	VENTURA, Natalia	SR	715	Palmetto Senior HS	22	25:21.96	6:48.0	8:09.4	5:04.4
27	PRITCHARD, Nicole	SO	581	Lakewood Ranch HS	--	25:23.60	6:49.6	8:09.9	5:04.7
28	LONGABACH, Jaclyn	JR	492	Braden River HS	23	25:37.66	7:03.7	8:14.4	5:07.5
29	CRUZ, Karla	JR	698	Palmetto Senior HS	24	25:43.37	7:09.4	8:16.3	5:08.7
30	JOHNSON, Kalli	SR	490	Braden River HS	25	25:54.33	7:20.4	8:19.8	5:10.9
31	TERMEER, Jada	SR	713	Palmetto Senior HS	26	25:55.59	7:21.6	8:20.2	5:11.1
32	PERRY, Emma	SO	706	Palmetto Senior HS	--	25:56.09	7:22.1	8:20.4	5:11.2
33	DAVIS, Miranda	9	487	Braden River HS	--	26:43.86	8:09.9	8:35.7	5:20.8
34	POPE, Caroline	9	841	St. Stephens Episcopal School	--	26:53.40	8:19.4	8:38.8	5:22.7
35	WALTER, Victoria	SR	613	Manatee HS	27	27:36.82	9:02.9	8:52.7	5:31.4
36	JACKSON, Cecelia	SO	608	Manatee HS	28	27:47.70	9:13.7	8:56.2	5:33.5
37	GEHRKE, Fallon	SO	573	Lakewood Ranch HS	--	27:55.47	9:21.5	8:58.7	5:35.1
38	SOBERANIS, Dulce	JR	711	Palmetto Senior HS	--	28:45.20	10:11.2	9:14.7	5:45.0
39	LEON, Madelyn	SO	702	Palmetto Senior HS	--	30:15.65	11:41.7	9:43.8	6:03.1
40	MELVIN, Sydney	JR	704	Palmetto Senior HS	--	30:40.03	12:06.1	9:51.6	6:08.0
41	HALE, Aryana	JR	701	Palmetto Senior HS	--	30:47.70	12:13.7	9:54.1	6:09.5
42	NAVARRO, Ella	9	496	Braden River HS	--	31:07.40	12:33.4	10:00.5	6:13.5
43	CASHEN, Madeline	9	837	St. Stephens Episcopal School	--	32:07.26	13:33.3	10:19.7	6:25.5
44	HAUPT, Camille	9	489	Braden River HS	--	32:46.40	14:12.4	10:32.3	6:33.3
45	RAMIREZ, Jasmine	SO	708	Palmetto Senior HS	--	34:55.83	16:21.9	11:13.9	6:59.2
46	RAMIREZ, Clara	SO	707	Palmetto Senior HS	--	35:45.53	17:11.6	11:29.9	7:09.1
47	GARCIA, Victoria	JR	488	Braden River HS	--	40:32.82	21:58.9	13:02.3	8:06.6
Race #2

Boys 5K Sarasota

FINAL RESULTS
RACE SUMMARY
 Start Time:  6:00 pm  Conditions:  Dry  Temperature:  88 Degrees  Winds:  ENE 9 mph 
 Meet Starter:  Dave Bryan

TEAM SCORING SUMMARY
Sarasota
Final Standings	Score	Scoring Order	Total	Avg.	Spread	Division
1	Sarasota HS	30	1-2-8-9-10(11)(24)	1:30:22	18:05	0:56.6	Sarasota
2	Venice HS	66	5-6-15-17-23(40)(43)	1:33:11	18:39	1:29.3	Sarasota
3	Sarasota Riverview HS	73	3-13-14-18-25(26)(29)	1:33:48	18:46	1:43.8	Sarasota
4	Out of Door Academy	84	7-12-16-22-27(28)(33)	1:35:06	19:02	1:37.0	Sarasota
5	North Port HS	109	4-19-21-30-35(38)(41)	1:36:48	19:22	2:45.6	Sarasota
6	Imagine School at North Port	159	20-32-34-36-37(39)(42)	1:41:27	20:18	1:29.9	Sarasota
7	Sarasota Military Academy	213	31-44-45-46-47	1:57:32	23:31	6:46.7	Sarasota
INDIVIDUAL RESULTS
Boys 5k Sarasota
pl	name	yr		team		time
1	RENNER, Hunter	JR	754	Sarasota HS	1	17:33.57	0:43.6	5:38.8	3:30.7
2	HANNAH, Cyrus	SO	746	Sarasota HS	2	17:34.98	0:45.0	5:39.2	3:31.0
3	CARAGIULO, Lucas	JR	787	Sarasota Riverview HS	3	17:46.05	0:56.1	5:42.8	3:33.2
4	SMITH, Joseph	SO	629	North Port HS	4	17:50.53	1:00.6	5:44.2	3:34.1
5	SWEIDERK, Ben	JR	862	Venice HS	5	17:56.10	1:06.1	5:46.0	3:35.2
6	TEIJELO, Alberto	SO	864	Venice HS	6	17:57.70	1:07.7	5:46.5	3:35.5
7	MCWILLIAM, Tristan	8	657	Out of Door Academy	7	18:12.11	1:22.2	5:51.2	3:38.4
8	HUKLEBERRY, John	JR	749	Sarasota HS	8	18:13.02	1:23.1	5:51.5	3:38.6
9	LACHANCE-PEREZ, John	JR	752	Sarasota HS	9	18:29.87	1:39.9	5:56.9	3:42.0
10	HERRERA, Sebastian	JR	748	Sarasota HS	10	18:30.16	1:40.2	5:57.0	3:42.0
11	STIFF, Robert	SO	757	Sarasota HS	11	18:32.19	1:42.2	5:57.6	3:42.4
12	BALL, Ethan	SR	649	Out of Door Academy	12	18:41.26	1:51.3	6:00.5	3:44.3
13	ELSEY, Teage	9	790	Sarasota Riverview HS	13	18:42.59	1:52.6	6:01.0	3:44.5
14	STONE, Dylan	SO	800	Sarasota Riverview HS	14	18:42.65	1:52.7	6:01.0	3:44.5
15	POSSEHL, Tyson	JR	859	Venice HS	15	18:45.95	1:56.0	6:02.0	3:45.2
16	BECK, Tyler	8	650	Out of Door Academy	16	19:00.21	2:10.3	6:06.6	3:48.0
17	LANE, Austin	9	855	Venice HS	17	19:05.79	2:15.8	6:08.4	3:49.2
18	HALBERT, William	JR	791	Sarasota Riverview HS	18	19:06.67	2:16.7	6:08.7	3:49.3
19	AMAYA, Alvaro	JR	615	North Port HS	19	19:06.95	2:17.0	6:08.8	3:49.4
20	RENAUD, Nick	SR	541	Imagine School at North Port	20	19:12.76	2:22.8	6:10.7	3:50.6
21	RATHBURN, Zachary	SO	627	North Port HS	21	19:18.13	2:28.2	6:12.4	3:51.6
22	SANFORD, Jake	SO	659	Out of Door Academy	22	19:22.41	2:32.5	6:13.8	3:52.5
23	CASELLA, Michael	JR	850	Venice HS	23	19:25.34	2:35.4	6:14.7	3:53.1
24	GOETZ, Nathaniel	9	743	Sarasota HS	24	19:27.82	2:37.9	6:15.5	3:53.6
25	DAVIS, Zane	9	789	Sarasota Riverview HS	25	19:29.84	2:39.9	6:16.2	3:54.0
26	WARWICK, Hunter	JR	758	Sarasota HS	--	19:40.25	2:50.3	6:19.5	3:56.1
27	SCHMEITS, Mateo	SR	796	Sarasota Riverview HS	26	19:45.27	2:55.3	6:21.1	3:57.1
28	SODERBERG, Stig	7	660	Out of Door Academy	27	19:49.08	2:59.1	6:22.3	3:57.8
29	FLORIGLIO, Charlie	9	654	Out of Door Academy	28	19:50.34	3:00.4	6:22.7	3:58.1
30	MAGLIO, Domenic	SO	793	Sarasota Riverview HS	29	19:53.28	3:03.3	6:23.7	3:58.7
31	TURNBERGER, Cameron	SO	631	North Port HS	30	19:55.94	3:06.0	6:24.5	3:59.2
32	RICH, Nicholas	9	755	Sarasota HS	--	19:56.28	3:06.3	6:24.7	3:59.3
33	RHOADES, Austin	JR	794	Sarasota Riverview HS	--	19:59.20	3:09.2	6:25.6	3:59.8
34	GUENDJOIAN, Steven	SO	745	Sarasota HS	--	20:09.19	3:19.2	6:28.8	4:01.8
35	WILKINSON, William	JR	781	Sarasota Military Academy	31	20:09.26	3:19.3	6:28.8	4:01.9
36	YACINO, Louis	SR	546	Imagine School at North Port	32	20:18.27	3:28.3	6:31.7	4:03.7
37	ARSLANER, Sloan	8	648	Out of Door Academy	33	20:26.83	3:36.9	6:34.5	4:05.4
38	FINCANNON, Cohen	SO	534	Imagine School at North Port	34	20:30.74	3:40.8	6:35.7	4:06.1
39	THOMPSON, Isaiah	SO	630	North Port HS	35	20:36.07	3:46.1	6:37.5	4:07.2
40	BROWN, Dylan	SR	532	Imagine School at North Port	36	20:42.37	3:52.4	6:39.5	4:08.5
41	HARRIS, Aaron	JR	535	Imagine School at North Port	37	20:42.65	3:52.7	6:39.6	4:08.5
42	MEZA, Oscar	JR	625	North Port HS	38	20:43.08	3:53.1	6:39.7	4:08.6
43	ROELL, Collin	SR	795	Sarasota Riverview HS	--	21:03.44	4:13.5	6:46.3	4:12.7
44	EAKLE, Owen	8	652	Out of Door Academy	--	21:11.31	4:21.4	6:48.8	4:14.3
45	KIKTENKO, Vladislav	SR	537	Imagine School at North Port	39	21:19.96	4:30.0	6:51.6	4:16.0
46	HERRINGTON, Josh	SO	852	Venice HS	40	21:21.99	4:32.0	6:52.2	4:16.4
47	BALLENTINE, Isaac	JR	616	North Port HS	41	21:30.84	4:40.9	6:55.1	4:18.2
48	LESLIE, Zachary	SO	538	Imagine School at North Port	42	21:33.56	4:43.6	6:55.9	4:18.7
49	FUGLEBERG, Peter	9	742	Sarasota HS	--	21:41.76	4:51.8	6:58.6	4:20.4
50	CARAGIULO, roman	SO	788	Sarasota Riverview HS	--	21:43.84	4:53.9	6:59.2	4:20.8
51	FRIEDT, Kyle	SR	617	North Port HS	--	21:55.34	5:05.4	7:02.9	4:23.1
52	ROBINSON, Richard	JR	628	North Port HS	--	22:07.13	5:17.2	7:06.7	4:25.4
53	PICKERT, Owen	SR	858	Venice HS	43	22:07.25	5:17.3	7:06.8	4:25.5
54	MALCOLM, Jack	SR	655	Out of Door Academy	--	22:21.52	5:31.6	7:11.4	4:28.3
55	FIORUCCI, Declan	6	653	Out of Door Academy	--	22:24.07	5:34.1	7:12.2	4:28.8
56	BARRANTES, Carlos	JR	784	Sarasota Riverview HS	--	22:28.96	5:39.0	7:13.7	4:29.8
57	SILVA, Ernesto	SO	543	Imagine School at North Port	--	22:37.25	5:47.3	7:16.4	4:31.5
58	BURKE, Aidan	SO	786	Sarasota Riverview HS	--	22:45.55	5:55.6	7:19.1	4:33.1
59	TERRELL, Jacob	SO	544	Imagine School at North Port	--	22:49.84	5:59.9	7:20.5	4:34.0
60	RODRIGUEZ, Andrew	9	860	Venice HS	--	22:58.29	6:08.3	7:23.2	4:35.7
61	HERNANDEZ-DELACRUZ, Edwin	JR	792	Sarasota Riverview HS	--	23:00.90	6:10.9	7:24.0	4:36.2
62	SMITH, Anthony	SR	861	Venice HS	--	23:02.00	6:12.0	7:24.4	4:36.4
63	VALVERDE, Jeremiah	SO	632	North Port HS	--	23:10.24	6:20.3	7:27.0	4:38.0
64	FRANCE, Thomas	SO	777	Sarasota Military Academy	44	23:16.57	6:26.6	7:29.1	4:39.3
65	LUIS, Armando	SR	540	Imagine School at North Port	--	23:19.11	6:29.2	7:29.9	4:39.8
66	HERNANDEZ, Daniel	JR	778	Sarasota Military Academy	45	23:29.48	6:39.5	7:33.2	4:41.9
67	GAGLIARDO, James	JR	618	North Port HS	--	23:39.04	6:49.1	7:36.3	4:43.8
68	MATTHEWS, Andrew	SR	623	North Port HS	--	23:40.36	6:50.4	7:36.7	4:44.1
69	THURBER, Jaden	JR	780	Sarasota Military Academy	46	23:40.65	6:50.7	7:36.8	4:44.1
70	KIRSCH, Anson	9	620	North Port HS	--	23:50.75	7:00.8	7:40.0	4:46.2
71	EVERETT, Caleb	SO	851	Venice HS	--	24:02.00	7:12.0	7:43.7	4:48.4
72	STRENK, Liam	SO	458	Booker HS	--	24:19.52	7:29.6	7:49.3	4:51.9
73	BANE, Samauri	SR	455	Booker HS	--	24:21.57	7:31.6	7:50.0	4:52.3
74	DESCHENE, Eric	SO	533	Imagine School at North Port	--	24:30.23	7:40.3	7:52.7	4:54.0
75	RAMIREZ, Franklin	JR	626	North Port HS	--	24:43.52	7:53.6	7:57.0	4:56.7
76	HYER, Jacob	9	853	Venice HS	--	24:46.96	7:57.0	7:58.1	4:57.4
77	SIMS, Colton	9	798	Sarasota Riverview HS	--	24:56.52	8:06.6	8:01.2	4:59.3
78	LOWERY, Aidan	7	539	Imagine School at North Port	--	25:24.98	8:35.0	8:10.3	5:05.0
79	TRANCHINO, Jordan	SO	545	Imagine School at North Port	--	25:35.76	8:45.8	8:13.8	5:07.2
80	HODGES, Elijah	JR	619	North Port HS	--	26:23.97	9:34.0	8:29.3	5:16.8
81	RIDENER, Ethan	SO	542	Imagine School at North Port	--	26:50.71	10:00.8	8:37.9	5:22.1
82	BARNARD, Haylan	SO	776	Sarasota Military Academy	47	26:55.93	10:06.0	8:39.6	5:23.2
83	MATHEUS, Pedro	8	656	Out of Door Academy	--	27:43.93	10:54.0	8:55.0	5:32.8
84	MATTHEWS, Parker	9	624	North Port HS	--	28:02.34	11:12.4	9:00.9	5:36.5
85	IRVIN, Jack	SO	854	Venice HS	--	28:04.96	11:15.0	9:01.8	5:37.0
86	PACITTI, Luke	8	658	Out of Door Academy	--	28:39.33	11:49.4	9:12.8	5:43.9
87	LEAR, Elijah	SO	622	North Port HS	--	29:11.02	12:21.1	9:23.0	5:50.2
88	HERNANDEZ, Diego	SO	536	Imagine School at North Port	--	34:18.25	17:28.3	11:01.8	6:51.6
Race #2

Boys 5K Charlotte

FINAL RESULTS
RACE SUMMARY
 Start Time:  6:00 pm  Conditions:  Dry  Temperature:  88 Degrees  Winds:  ENE 9 mph 
 Meet Starter:  Dave Bryan

TEAM SCORING SUMMARY
Charlotte
Final Standings	Score	Scoring Order	Total	Avg.	Spread	Division
1	Port Charlotte HS	17	1-2-3-5-6(9)(19)	1:30:59	18:12	2:32.4	Charlotte
2	Charlotte HS	52	7-8-10-13-14(15)(16)	1:39:36	19:56	1:09.1	Charlotte
3	Lemon Bay HS	62	4-11-12-17-18(20)	1:40:47	20:10	3:03.2	Charlotte
INDIVIDUAL RESULTS
Boys 5k Run Charlotte
pl	name	yr		team		time
1	PEREZ, John	SR	727	Port Charlotte HS	1	16:50.80	---	5:25.0	3:22.2
2	BISHOP, Joe	JR	717	Port Charlotte HS	2	17:15.00	0:25.0	5:32.8	3:27.0
3	CHAMBERS, Chase	SR	719	Port Charlotte HS	3	18:21.07	1:31.1	5:54.0	3:40.2
4	BLEM, Thomas	SO	586	Lemon Bay HS	4	18:31.25	1:41.3	5:57.3	3:42.3
5	EFFREM, Chris	SR	721	Port Charlotte HS	5	19:08.05	2:18.1	6:09.1	3:49.6
6	YINGLING, Bracken	JR	729	Port Charlotte HS	6	19:23.11	2:33.2	6:14.0	3:52.6
7	LILLE, Jake	JR	507	Charlotte HS	7	19:25.86	2:35.9	6:14.9	3:53.2
8	TRUE, Brendan	JR	514	Charlotte HS	8	19:29.06	2:39.1	6:15.9	3:53.8
9	MAULT, Kauhner	9	724	Port Charlotte HS	9	19:33.78	2:43.8	6:17.4	3:54.8
10	STOCK, James	9	511	Charlotte HS	10	19:38.05	2:48.1	6:18.8	3:55.6
11	FINCK, matt	9	587	Lemon Bay HS	11	19:42.73	2:52.8	6:20.3	3:56.5
12	TUCKER, Benjamin	JR	592	Lemon Bay HS	12	20:04.50	3:14.5	6:27.3	4:00.9
13	EDWARDS, Charles	SO	503	Charlotte HS	13	20:27.18	3:37.2	6:34.6	4:05.4
14	ORTIZ, Christian	9	509	Charlotte HS	14	20:34.95	3:45.0	6:37.1	4:07.0
15	TATRO, Noah	SO	512	Charlotte HS	15	20:38.87	3:48.9	6:38.4	4:07.8
16	DESGUIN, Jensen	SR	502	Charlotte HS	16	20:51.44	4:01.5	6:42.4	4:10.3
17	PERRY, Jake	9	590	Lemon Bay HS	17	20:53.79	4:03.8	6:43.1	4:10.8
18	HAVEL, Vincent	SR	504	Charlotte HS	--	21:06.95	4:17.0	6:47.4	4:13.4
19	CRONIN, Mason	JR	501	Charlotte HS	--	21:14.62	4:24.7	6:49.8	4:14.9
20	TORDECILLAS, James	SO	513	Charlotte HS	--	21:32.39	4:42.4	6:55.6	4:18.5
21	GREEN, Taylor	SO	588	Lemon Bay HS	18	21:34.45	4:44.5	6:56.2	4:18.9
22	NELSON, Manny	JR	726	Port Charlotte HS	19	22:33.32	5:43.4	7:15.2	4:30.7
23	HOLMES, Sebastian	JR	589	Lemon Bay HS	20	22:34.02	5:44.1	7:15.4	4:30.8
24	MIZELL, John	SR	508	Charlotte HS	--	23:00.46	6:10.5	7:23.9	4:36.1
25	POWELL, Preston	JR	510	Charlotte HS	--	23:03.02	6:13.1	7:24.7	4:36.6
26	ADAMS, Ian	JR	498	Charlotte HS	--	23:09.96	6:20.0	7:26.9	4:38.0
27	PLATT, Treyshaun	JR	728	Port Charlotte HS	--	23:41.15	6:51.2	7:37.0	4:44.2
28	BAGAN, Maxwell	JR	499	Charlotte HS	--	27:00.95	10:11.0	8:41.2	5:24.2
29	KEITH, Casey	JR	506	Charlotte HS	--	27:11.16	10:21.2	8:44.5	5:26.2
30	HUNTER, Timothy	JR	505	Charlotte HS	--	27:49.98	11:00.0	8:57.0	5:34.0
31	ZYNDA, Bryce	JR	515	Charlotte HS	--	29:45.98	12:56.0	9:34.3	5:57.2
32	KERSCHNER, Tyler	SO	528	Community Christian School (Port Charlotte)	--	31:46.59	14:56.6	10:13.1	6:21.3
33	MANCINI, George	9	722	Port Charlotte HS	--	33:12.59	16:22.6	10:40.7	6:38.5
Race #2

Boys 5K Manatee

FINAL RESULTS
RACE SUMMARY
 Start Time:  6:00 pm  Conditions:  Dry  Temperature:  88 Degrees  Winds:  ENE 9 mph 
 Meet Starter:  Dave Bryan

TEAM SCORING SUMMARY
Manatee
Final Standings	Score	Scoring Order	Total	Avg.	Spread	Division
1	Braden River HS	49	3-5-8-9-24(27)(29)	1:33:12	18:39	2:20.1	Manatee
2	Lakewood Ranch HS	54	4-7-11-14-18(23)	1:33:47	18:46	1:40.4	Manatee
3	Palmetto Senior HS	56	6-10-12-13-15(19)(21)	1:33:45	18:45	1:00.8	Manatee
4	Manatee HS	65	1-2-16-20-26(30)(34)	1:34:55	18:59	3:45.5	Manatee
5	Bayshore HS	128	17-22-25-31-33(35)(39)	1:42:55	20:35	2:16.3	Manatee
6	St. Stephens Episcopal School	171	28-32-36-37-38(40)(41)	1:48:52	21:47	1:18.7	Manatee
INDIVIDUAL RESULTS
Boys 5k Run Manatee
pl	name	yr		team		time
1	LYONS, Matthew	SR	604	Manatee HS	1	16:54.97	0:05.0	5:26.4	3:23.0
2	LESPASIO, Paul	9	603	Manatee HS	2	17:50.80	1:00.8	5:44.3	3:34.2
3	STAGER, William	SR	478	Braden River HS	3	17:58.01	1:08.1	5:46.6	3:35.6
4	LAIELLI, Gavin	SO	562	Lakewood Ranch HS	4	18:03.31	1:13.4	5:48.3	3:36.7
5	HOWARD, Dylan	9	469	Braden River HS	5	18:08.96	1:19.0	5:50.1	3:37.8
6	CARTER, Randall	SO	678	Palmetto Senior HS	6	18:18.98	1:29.0	5:53.4	3:39.8
7	CATLETT, Owen	SO	555	Lakewood Ranch HS	7	18:21.33	1:31.4	5:54.1	3:40.3
8	MCCOY, Dustin	JR	473	Braden River HS	8	18:23.07	1:33.1	5:54.7	3:40.6
9	SWANN, Brandon	9	481	Braden River HS	9	18:23.48	1:33.5	5:54.8	3:40.7
10	BUTZOW, Collin	9	677	Palmetto Senior HS	10	18:27.99	1:38.0	5:56.3	3:41.6
11	DUFFY, James	SR	558	Lakewood Ranch HS	11	18:29.77	1:39.8	5:56.8	3:42.0
12	LAWN, Logan	SO	684	Palmetto Senior HS	12	18:39.78	1:49.8	6:00.1	3:44.0
13	LAWN, Samuel	SO	685	Palmetto Senior HS	13	18:57.68	2:07.7	6:05.8	3:47.5
14	CHAPMAN, Connor	JR	556	Lakewood Ranch HS	14	19:07.99	2:18.0	6:09.1	3:49.6
15	BROOKS, Ethan	JR	675	Palmetto Senior HS	15	19:19.71	2:29.8	6:12.9	3:51.9
16	JOHNSON, Trenton	9	602	Manatee HS	16	19:22.38	2:32.4	6:13.8	3:52.5
17	YOUMANS, Arion	SR	447	Bayshore HS	17	19:27.38	2:37.4	6:15.4	3:53.5
18	NAVAS, Gino	SR	564	Lakewood Ranch HS	18	19:43.71	2:53.8	6:20.6	3:56.7
19	MARTIN, Ethan	SO	687	Palmetto Senior HS	19	19:47.88	2:57.9	6:22.0	3:57.6
20	COLACO, Michael	9	598	Manatee HS	20	20:05.70	3:15.7	6:27.7	4:01.1
21	WATSON, Matthew	SR	694	Palmetto Senior HS	21	20:07.88	3:17.9	6:28.4	4:01.6
22	PALMA, Jaun	JR	443	Bayshore HS	22	20:08.92	3:19.0	6:28.7	4:01.8
23	IRWIN, Kevin	JR	561	Lakewood Ranch HS	23	20:14.65	3:24.7	6:30.6	4:02.9
24	WOLF, Wlliam	SO	485	Braden River HS	24	20:18.07	3:28.1	6:31.7	4:03.6
25	PATON, Christian	JR	689	Palmetto Senior HS	--	20:18.43	3:28.5	6:31.8	4:03.7
26	AYALA, Luis	SR	435	Bayshore HS	25	20:29.98	3:40.0	6:35.5	4:06.0
27	HERRERA, Giovanni	JR	681	Palmetto Senior HS	--	20:38.52	3:48.6	6:38.2	4:07.7
28	GOETHE, Michael	SO	600	Manatee HS	26	20:40.47	3:50.5	6:38.9	4:08.1
29	FREER, Terry	SR	466	Braden River HS	27	20:44.25	3:54.3	6:40.1	4:08.9
30	KLEPPER, Jonathan	SO	683	Palmetto Senior HS	--	20:45.09	3:55.1	6:40.4	4:09.0
31	KATCHEN, Tyler	SO	826	St. Stephens Episcopal School	28	20:54.52	4:04.6	6:43.4	4:10.9
32	MEYER, Soren	SR	474	Braden River HS	29	21:02.25	4:12.3	6:45.9	4:12.5
33	SWANSON, Matthew	JR	605	Manatee HS	30	21:03.62	4:13.7	6:46.3	4:12.7
34	RODRIGUES, Isaiah Matej	SO	475	Braden River HS	--	21:04.58	4:14.6	6:46.6	4:12.9
35	PILIADO, Leonardo	SO	444	Bayshore HS	31	21:04.95	4:15.0	6:46.7	4:13.0
36	MACCINI, Andrew	9	686	Palmetto Senior HS	--	21:07.59	4:17.6	6:47.6	4:13.5
37	DEPINA, Isaiah	SO	464	Braden River HS	--	21:27.02	4:37.1	6:53.8	4:17.4
38	KING, William	SO	471	Braden River HS	--	21:27.29	4:37.3	6:53.9	4:17.5
39	RYSKAMP, Cade	SO	832	St. Stephens Episcopal School	32	21:30.40	4:40.4	6:54.9	4:18.1
40	PENA, Edwin	SO	691	Palmetto Senior HS	--	21:38.88	4:48.9	6:57.6	4:19.8
41	FREEMAN, Jacob	SO	437	Bayshore HS	33	21:43.63	4:53.7	6:59.2	4:20.7
42	PENA, Cristian	SO	690	Palmetto Senior HS	--	21:51.41	5:01.5	7:01.7	4:22.3
43	HALFACRE, Charlie	SO	601	Manatee HS	34	21:54.17	5:04.2	7:02.6	4:22.8
44	GUILLEN-HERNANDEZ, Jason	SR	438	Bayshore HS	35	21:58.07	5:08.1	7:03.8	4:23.6
45	KINKEAD, Matthew	JR	827	St. Stephens Episcopal School	36	22:03.27	5:13.3	7:05.5	4:24.7
46	FIELDS, Eric	9	825	St. Stephens Episcopal School	37	22:10.21	5:20.3	7:07.7	4:26.0
47	PHOMMACHANH, Luke	9	830	St. Stephens Episcopal School	38	22:13.21	5:23.3	7:08.7	4:26.6
48	WINCHELL, Kyle	SO	695	Palmetto Senior HS	--	22:19.36	5:29.4	7:10.7	4:27.9
49	AUSTIN, Eathan	SR	434	Bayshore HS	39	22:26.19	5:36.2	7:12.9	4:29.2
50	DAVIS, Seth	SO	462	Braden River HS	--	22:27.60	5:37.6	7:13.3	4:29.5
51	WALLIS, Nathan	JR	483	Braden River HS	--	22:29.18	5:39.2	7:13.8	4:29.8
52	KELLEHER, Dawson	JR	682	Palmetto Senior HS	--	22:48.71	5:58.8	7:20.1	4:33.7
53	STROT, Maverick	SO	480	Braden River HS	--	23:01.79	6:11.8	7:24.3	4:36.4
54	WILLIAMS, Nicholas	SO	446	Bayshore HS	--	23:16.61	6:26.7	7:29.1	4:39.3
55	WINTERHALTER, Alexander	SO	836	St. Stephens Episcopal School	40	23:27.89	6:37.9	7:32.7	4:41.6
56	VALLE, Daniel	JR	445	Bayshore HS	--	23:29.82	6:39.9	7:33.3	4:42.0
57	ANDERS, Derien	SO	433	Bayshore HS	--	23:40.87	6:50.9	7:36.9	4:44.2
58	GROSS, Seth	9	468	Braden River HS	--	24:09.78	7:19.8	7:46.2	4:50.0
59	GAROFALO, Rick	SO	467	Braden River HS	--	24:17.39	7:27.4	7:48.6	4:51.5
60	VAUGHN, Blake	9	482	Braden River HS	--	24:33.89	7:43.9	7:53.9	4:54.8
61	CURULLA, Jack	SO	679	Palmetto Senior HS	--	24:47.27	7:57.3	7:58.2	4:57.5
62	FINN, Thomas	9	465	Braden River HS	--	25:13.35	8:23.4	8:06.6	5:02.7
63	STEPHENS, Taveon	9	479	Braden River HS	--	26:13.31	9:23.4	8:25.9	5:14.7
64	HURLEY, Trenton	SO	470	Braden River HS	--	26:45.91	9:56.0	8:36.4	5:21.2
65	MELVIN, Richard	JR	688	Palmetto Senior HS	--	27:02.28	10:12.3	8:41.6	5:24.5
66	LAWRENCE, Addison	SO	829	St. Stephens Episcopal School	41	28:32.90	11:42.9	9:10.8	5:42.6
67	SPURLOCK, Alex	JR	477	Braden River HS	--	28:42.15	11:52.2	9:13.7	5:44.4
68	LEON, Kevin	SO	440	Bayshore HS	--	29:00.91	12:11.0	9:19.8	5:48.2
69	ESPINOZA, Luis	SO	680	Palmetto Senior HS	--	38:00.18	21:10.2	12:13.2	7:36.0